Portsmouth, NH

9:01 PM EST on February 24, 2018 (GMT -0500)
Pease International Tradeport | | Change Station
Active Advisory: Winter Weather Advisory

Elev 98 ft 43.08 °N, 70.82 °W | Updated 5 minutes ago

Mostly Cloudy
Mostly Cloudy
38 °F
Feels Like 33 °F
N
6
Wind Variable Wind from WNW

Today
High -- | Low -- °F
--% Chance of Precip.
Yesterday
High -- | Low -- °F
Precip. -- in
Pressure 30.25 in
Visibility 10.0 miles
Clouds Few 15000 ft
Mostly Cloudy 25000 ft
Windchill 33 °F
Dew Point 26 °F
Humidity 62%
Rainfall 0.00 in
Snow Depth Not available.
6:27 AM 5:26 PM
Waxing Gibbous, 69% visible
METAR KPSM 250156Z 30005KT 10SM FEW150 BKN250 03/M03 A3024 RMK AO2A SLP243 T00321034
Pressure 30.25 in
Visibility 10.0 miles
Clouds Few 15000 ft
Mostly Cloudy 25000 ft
Windchill 33 °F
Dew Point 26 °F
Humidity 62%
Rainfall 0.00 in
Snow Depth Not available.
6:27 AM 5:26 PM
Waxing Gibbous, 69% visible
METAR KPSM 250156Z 30005KT 10SM FEW150 BKN250 03/M03 A3024 RMK AO2A SLP243 T00321034

Get Your Daily Forecast Email!

Thanks for signing up!

Be on the lookout for a verification email in your inbox.

You'll start receiving severe weather alerts in your inbox..

×

10-Day Weather Forecast

Almanac

Astronomy

Feb. 24, 2018 Rise Set
Actual Time
Civil Twilight
Nautical Twilight
Astronomical Twilight
Moon
Length of Visible Light
Length of Day
Tomorrow will be .
, % of the Moon is Illuminated

Today's Extremes

State Highs State Lows

Community

WunderPhotos

Category 6

Welcome to Category 6. This is the collective home for Weather Underground's featured writeups by Dr. Jeff Masters (right), Bob Henson (left), Chris Burt, and other regular contributors.

Nearby

Air Quality

  Air Quality AQ Index Pollutant
Not available.

Snow Depth

Station Depth Elevation

Earthquake Activity

City Distance Mag. Time & Date
Minimum magnitude displayed is 2.5.

Coastal Water Temperatures

Place Temperature

Stations

Nearby Weather Stations

Station Location Temp. Windchill Dew Point Humidity Wind Precip. Elev Updated Type
                   

Watches & Warnings

Winter Weather Advisory
Issued: 3:18 PM EST Feb. 24, 2018 – National Weather Service

... Winter Weather Advisory in effect from 5 am to 4 PM EST
Sunday...

* what... mixed precipitation expected. Plan on slippery Road
conditions. Total snow accumulations of 2 to 4 inches and ice
accumulations of a light glaze are expected.

* Where... portions of central and southern New Hampshire and
southwest Maine.

* When... from 5 am to 4 PM EST Sunday.


Precautionary/preparedness actions...

A Winter Weather Advisory means that periods of snow, sleet or
freezing rain will cause travel difficulties. Be prepared for
slippery roads and limited visibilities, and use caution while
driving. For a more precise forecast for your specific location...
go to www.Weather.Gov/gray.